createdAt,value
2022-08-18T00:01:16.557Z,32.00
2022-08-18T00:04:34.799Z,30.80
2022-08-18T00:07:39.769Z,27.40
2022-08-18T00:10:50.587Z,33.00
2022-08-18T00:13:54.174Z,31.00
2022-08-18T00:16:57.418Z,32.00
2022-08-18T00:20:02.530Z,31.00
2022-08-18T00:23:06.141Z,32.60
2022-08-18T00:26:09.432Z,32.00
2022-08-18T00:29:12.698Z,32.00
2022-08-18T00:32:16.793Z,30.40
2022-08-18T00:35:29.133Z,31.00
2022-08-18T00:38:32.628Z,33.00
2022-08-18T00:41:36.124Z,32.20
2022-08-18T00:44:39.426Z,32.00
2022-08-18T00:47:43.403Z,32.00
2022-08-18T00:50:52.977Z,28.00
2022-08-18T00:54:01.759Z,30.00
2022-08-18T00:57:08.313Z,30.00
2022-08-18T01:00:13.703Z,32.00
2022-08-18T01:03:22.203Z,33.00
2022-08-18T01:06:33.958Z,32.00
2022-08-18T01:09:37.676Z,30.00
2022-08-18T01:12:45.977Z,30.00
2022-08-18T01:15:52.451Z,30.00
2022-08-18T01:19:13.327Z,32.20
2022-08-18T01:22:23.588Z,29.00
2022-08-18T01:25:45.651Z,32.00
2022-08-18T01:28:50.656Z,32.40
2022-08-18T01:31:56.481Z,35.00
2022-08-18T01:35:01.122Z,35.00
2022-08-18T01:38:04.428Z,33.00
2022-08-18T01:41:27.124Z,33.50
2022-08-18T01:44:33.865Z,34.75
2022-08-18T01:47:47.942Z,32.00
2022-08-18T01:50:53.593Z,35.00
2022-08-18T01:53:58.481Z,34.20
2022-08-18T01:57:03.799Z,32.00
2022-08-18T02:00:08.585Z,33.00
2022-08-18T02:03:16.115Z,25.80
2022-08-18T02:06:32.279Z,33.00
2022-08-18T02:09:38.559Z,36.00
2022-08-18T02:12:43.547Z,32.60
2022-08-18T02:15:47.302Z,33.00
2022-08-18T02:18:51.053Z,34.00
2022-08-18T02:21:55.129Z,33.00
2022-08-18T02:24:59.107Z,35.00
2022-08-18T02:28:04.119Z,32.40
2022-08-18T02:31:11.405Z,33.20
2022-08-18T02:34:15.959Z,33.60
2022-08-18T02:37:19.299Z,34.00
2022-08-18T02:40:22.983Z,38.00
2022-08-18T02:43:28.961Z,30.00
2022-08-18T02:46:32.212Z,34.25
2022-08-18T02:49:37.747Z,30.60
2022-08-18T02:52:41.715Z,34.00
2022-08-18T02:55:45.067Z,33.00
2022-08-18T02:58:51.058Z,22.40
2022-08-18T03:01:56.704Z,34.00
2022-08-18T03:05:00.267Z,35.00
2022-08-18T03:08:03.474Z,35.00
2022-08-18T03:11:06.846Z,36.00
2022-08-18T03:14:12.385Z,36.00
2022-08-18T03:17:16.044Z,43.80
2022-08-18T03:20:19.905Z,38.25
2022-08-18T03:23:34.504Z,38.00
2022-08-18T03:26:42.869Z,37.25
2022-08-18T03:29:47.499Z,40.60
2022-08-18T03:32:51.491Z,39.00
2022-08-18T03:35:54.806Z,38.00
2022-08-18T03:38:58.113Z,38.00
2022-08-18T03:42:02.254Z,33.00
2022-08-18T03:45:13.062Z,34.40
2022-08-18T03:48:21.969Z,36.00
2022-08-18T03:51:27.821Z,38.00
2022-08-18T03:54:33.765Z,15.75
2022-08-18T04:01:02.404Z,36.00
2022-08-18T04:04:09.987Z,42.40
2022-08-18T04:07:17.393Z,35.80
2022-08-18T04:10:21.285Z,37.60
2022-08-18T04:13:24.586Z,39.80
2022-08-18T04:16:32.388Z,41.00
2022-08-18T04:19:35.975Z,38.00
2022-08-18T04:22:39.272Z,38.00
2022-08-18T04:25:42.569Z,37.00
2022-08-18T04:28:46.141Z,35.00
2022-08-18T04:31:52.114Z,35.00
2022-08-18T04:34:55.405Z,31.60
2022-08-18T04:38:01.739Z,36.00
2022-08-18T04:41:05.138Z,36.25
2022-08-18T04:44:09.965Z,34.00
2022-08-18T04:47:14.632Z,36.00
2022-08-18T04:50:18.119Z,34.75
2022-08-18T04:53:39.408Z,35.00
2022-08-18T04:56:42.868Z,33.20
2022-08-18T04:59:49.276Z,36.40
2022-08-18T05:02:54.613Z,34.00
2022-08-18T05:05:59.880Z,38.00
2022-08-18T05:09:07.894Z,31.50
2022-08-18T05:12:14.693Z,32.20
2022-08-18T05:15:18.947Z,33.50
2022-08-18T05:18:26.697Z,31.75
2022-08-18T05:21:30.034Z,37.00
2022-08-18T05:24:37.329Z,33.00
2022-08-18T05:27:44.307Z,33.00
2022-08-18T05:30:47.597Z,33.00
2022-08-18T05:33:53.047Z,32.00
2022-08-18T05:37:09.383Z,32.25
2022-08-18T05:40:16.054Z,34.20
2022-08-18T05:43:19.743Z,34.50
2022-08-18T05:46:33.232Z,33.00
2022-08-18T05:49:39.240Z,34.60
2022-08-18T05:52:56.397Z,35.20
2022-08-18T05:56:21.004Z,34.20
2022-08-18T05:59:29.053Z,30.20
2022-08-18T06:02:36.439Z,31.80
2022-08-18T06:05:51.017Z,33.00
2022-08-18T06:08:59.364Z,25.80
2022-08-18T06:12:13.462Z,35.00
2022-08-18T06:15:21.453Z,32.60
2022-08-18T06:18:38.572Z,32.50
2022-08-18T06:21:53.835Z,33.80
2022-08-18T06:25:08.066Z,32.00
2022-08-18T06:28:16.152Z,34.00
2022-08-18T06:31:29.343Z,30.00
2022-08-18T06:34:42.466Z,32.00
2022-08-18T06:38:15.611Z,32.00
2022-08-18T06:41:41.777Z,31.20
2022-08-18T06:44:51.013Z,30.40
2022-08-18T06:48:15.165Z,30.00
2022-08-18T06:51:22.394Z,34.60
2022-08-18T06:54:31.840Z,33.00
2022-08-18T06:57:38.213Z,33.00
2022-08-18T07:00:49.160Z,32.20
2022-08-18T07:03:56.909Z,30.00
2022-08-18T07:07:00.631Z,31.60
2022-08-18T07:10:08.517Z,31.20
2022-08-18T07:13:21.278Z,29.00
2022-08-18T07:16:56.725Z,31.00
2022-08-18T07:20:02.028Z,29.00
2022-08-18T07:23:07.976Z,33.00
2022-08-18T07:26:16.834Z,30.00
2022-08-18T07:29:20.248Z,31.60
2022-08-18T07:32:27.222Z,30.00
2022-08-18T07:35:37.837Z,31.00
2022-08-18T07:38:49.760Z,31.00
2022-08-18T07:42:04.504Z,27.00
2022-08-18T07:45:16.463Z,28.00
2022-08-18T07:48:38.060Z,25.00
2022-08-18T07:51:48.311Z,26.40
2022-08-18T07:55:07.069Z,24.80
2022-08-18T07:58:26.065Z,27.60
2022-08-18T08:01:37.589Z,29.40
2022-08-18T08:04:47.894Z,26.25
2022-08-18T08:07:59.194Z,16.00
2022-08-18T08:11:11.856Z,26.80
2022-08-18T08:14:37.160Z,24.60
2022-08-18T08:17:49.467Z,25.50
2022-08-18T08:20:58.606Z,24.00
2022-08-18T08:24:14.419Z,26.00
2022-08-18T08:27:25.915Z,29.40
2022-08-18T08:30:34.900Z,27.20
2022-08-18T08:33:44.326Z,26.50
2022-08-18T08:36:49.348Z,28.40
2022-08-18T08:39:58.866Z,28.00
2022-08-18T08:43:05.945Z,25.20
2022-08-18T08:46:14.910Z,26.00
2022-08-18T08:49:30.904Z,26.50
2022-08-18T08:52:41.891Z,23.20
2022-08-18T08:55:49.480Z,20.60
2022-08-18T08:58:58.687Z,22.00
2022-08-18T09:02:47.287Z,20.40
2022-08-18T09:06:01.762Z,22.00
2022-08-18T09:09:23.517Z,22.20
2022-08-18T09:12:41.618Z,21.00
2022-08-18T09:16:12.345Z,23.20
2022-08-18T09:19:34.407Z,21.80
2022-08-18T09:22:48.606Z,19.60
2022-08-18T09:25:54.688Z,23.00
2022-08-18T09:29:02.155Z,20.50
2022-08-18T09:32:40.239Z,21.00
2022-08-18T09:36:25.735Z,19.60
2022-08-18T09:39:54.919Z,18.00
2022-08-18T09:43:15.139Z,21.00
2022-08-18T09:46:52.127Z,20.50
2022-08-18T09:49:56.567Z,21.00
2022-08-18T09:53:20.033Z,18.00
2022-08-18T09:57:07.329Z,21.00
2022-08-18T10:00:30.520Z,17.20
2022-08-18T10:03:36.795Z,18.00
2022-08-18T10:06:42.843Z,19.00
2022-08-18T10:10:58.726Z,19.40
2022-08-18T10:13:37.541Z,20.00
2022-08-18T10:17:23.480Z,17.00
2022-08-18T10:20:28.348Z,17.50
2022-08-18T10:24:08.027Z,17.60
2022-08-18T10:27:49.273Z,16.25
2022-08-18T10:31:13.185Z,18.50
2022-08-18T10:38:11.604Z,12.60
2022-08-18T10:41:27.415Z,15.25
2022-08-18T10:44:42.083Z,18.00
2022-08-18T10:47:47.281Z,19.00
2022-08-18T10:51:00.185Z,18.00
2022-08-18T10:54:12.235Z,17.00
2022-08-18T10:57:33.736Z,18.00
2022-08-18T11:00:49.331Z,18.60
2022-08-18T11:04:22.624Z,17.00
2022-08-18T11:07:34.382Z,15.75
2022-08-18T11:10:58.254Z,16.00
2022-08-18T11:14:15.921Z,18.40
2022-08-18T11:17:34.775Z,16.40
2022-08-18T11:20:40.260Z,14.60
2022-08-18T11:23:46.431Z,18.00
2022-08-18T11:26:53.511Z,16.00
2022-08-18T11:30:01.206Z,15.20
2022-08-18T11:33:06.709Z,17.00
2022-08-18T11:36:10.798Z,13.80
2022-08-18T11:39:15.462Z,17.00
2022-08-18T11:42:21.694Z,17.00
2022-08-18T11:45:33.743Z,16.00
2022-08-18T11:48:50.976Z,16.60
2022-08-18T11:52:02.285Z,16.75
2022-08-18T11:55:23.978Z,16.00
2022-08-18T11:58:39.730Z,17.60
2022-08-18T12:01:51.515Z,15.40
2022-08-18T12:05:08.749Z,15.00
2022-08-18T12:08:56.343Z,13.00
2022-08-18T12:11:56.553Z,17.00
2022-08-18T12:15:09.165Z,15.00
2022-08-18T12:18:28.269Z,16.00
2022-08-18T12:21:34.260Z,15.50
2022-08-18T12:24:40.161Z,16.00
2022-08-18T12:27:43.677Z,16.00
2022-08-18T12:30:47.786Z,18.00
2022-08-18T12:34:00.838Z,18.00
2022-08-18T12:37:34.053Z,16.50
2022-08-18T12:40:34.156Z,15.60
2022-08-18T12:43:37.433Z,14.00
2022-08-18T12:46:42.750Z,14.00
2022-08-18T12:49:46.336Z,14.00
2022-08-18T12:52:55.532Z,14.20
2022-08-18T12:55:59.439Z,18.00
2022-08-18T12:59:06.357Z,17.00
2022-08-18T13:02:11.683Z,15.00
2022-08-18T13:05:15.404Z,15.60
2022-08-18T13:08:30.113Z,16.00
2022-08-18T13:11:36.683Z,17.00
2022-08-18T13:14:40.262Z,16.00
2022-08-18T13:17:47.932Z,15.20
2022-08-18T13:20:51.912Z,15.40
2022-08-18T13:23:57.188Z,16.00
2022-08-18T13:27:04.312Z,16.00
2022-08-18T13:30:31.293Z,15.80
2022-08-18T13:33:56.156Z,16.00
2022-08-18T13:36:59.103Z,17.33
2022-08-18T13:40:05.521Z,15.00
2022-08-18T13:43:12.045Z,16.00
2022-08-18T13:46:29.889Z,16.00
2022-08-18T13:49:34.330Z,18.00
2022-08-18T13:52:44.362Z,18.00
2022-08-18T13:55:52.107Z,15.40
2022-08-18T13:58:55.486Z,17.00
2022-08-18T14:02:00.245Z,16.00
2022-08-18T14:05:04.388Z,15.40
2022-08-18T14:08:09.627Z,16.40
2022-08-18T14:11:14.778Z,13.40
2022-08-18T14:14:20.647Z,16.80
2022-08-18T14:17:26.094Z,16.00
2022-08-18T14:20:48.143Z,14.00
2022-08-18T14:24:10.603Z,15.40
2022-08-18T14:27:19.545Z,16.00
2022-08-18T14:30:23.840Z,15.60
2022-08-18T14:33:49.708Z,12.50
2022-08-18T14:36:53.498Z,12.00
2022-08-18T14:39:59.371Z,18.00
2022-08-18T14:43:06.573Z,18.00
2022-08-18T14:46:11.370Z,16.00
2022-08-18T14:49:15.013Z,13.00
2022-08-18T14:52:32.104Z,16.00
2022-08-18T14:55:36.083Z,18.00
2022-08-18T14:58:41.804Z,15.00
2022-08-18T15:01:45.680Z,16.40
2022-08-18T15:04:53.059Z,15.00
2022-08-18T15:08:03.746Z,16.00
2022-08-18T15:11:11.727Z,15.80
2022-08-18T15:14:17.619Z,14.75
2022-08-18T15:17:22.872Z,14.00
2022-08-18T15:20:29.927Z,17.00
2022-08-18T15:23:51.890Z,14.00
2022-08-18T15:27:06.224Z,17.00
2022-08-18T15:30:19.531Z,16.00
2022-08-18T15:33:25.856Z,17.20
2022-08-18T15:36:35.977Z,16.00
2022-08-18T15:39:39.722Z,16.00
2022-08-18T15:42:50.917Z,13.60
2022-08-18T15:45:58.297Z,15.00
2022-08-18T15:49:01.840Z,17.80
2022-08-18T15:52:07.019Z,16.00
2022-08-18T15:55:15.339Z,17.00
2022-08-18T15:58:22.359Z,17.00
2022-08-18T16:01:32.340Z,16.20
2022-08-18T16:04:39.518Z,15.20
2022-08-18T16:07:47.793Z,15.00
2022-08-18T16:10:52.505Z,16.00
2022-08-18T16:13:55.906Z,16.80
2022-08-18T16:17:06.046Z,17.00
2022-08-18T16:20:13.351Z,15.00
2022-08-18T16:23:16.753Z,15.00
2022-08-18T16:26:22.453Z,14.00
2022-08-18T16:29:25.995Z,15.00
2022-08-18T16:32:31.477Z,17.00
2022-08-18T16:35:37.355Z,17.00
2022-08-18T16:38:43.266Z,11.80
2022-08-18T16:41:50.506Z,14.00
2022-08-18T16:44:53.733Z,17.00
2022-08-18T16:47:58.921Z,15.25
2022-08-18T16:51:02.176Z,13.40
2022-08-18T16:54:05.609Z,14.00
2022-08-18T16:57:09.419Z,13.00
2022-08-18T17:00:31.295Z,14.00
2022-08-18T17:03:53.602Z,14.00
2022-08-18T17:06:58.009Z,12.60
2022-08-18T17:10:01.735Z,14.00
2022-08-18T17:13:06.890Z,15.00
2022-08-18T17:16:12.607Z,15.00
2022-08-18T17:19:17.529Z,13.60
2022-08-18T17:22:20.859Z,12.80
2022-08-18T17:25:26.803Z,12.20
2022-08-18T17:28:50.624Z,11.00
2022-08-18T17:32:00.192Z,12.00
2022-08-18T17:35:09.510Z,14.80
2022-08-18T17:38:22.657Z,14.00
2022-08-18T17:41:27.234Z,15.40
2022-08-18T17:44:31.946Z,16.00
2022-08-18T17:47:38.880Z,15.80
2022-08-18T17:51:05.941Z,18.00
2022-08-18T17:54:19.214Z,13.80
2022-08-18T17:57:29.678Z,14.00
2022-08-18T18:00:33.272Z,13.80
2022-08-18T18:03:37.083Z,17.00
2022-08-18T18:06:46.271Z,15.25
2022-08-18T18:09:56.586Z,15.00
2022-08-18T18:13:14.611Z,15.00
2022-08-18T18:16:26.227Z,14.80
2022-08-18T18:19:31.344Z,17.00
2022-08-18T18:22:37.885Z,16.00
2022-08-18T18:25:42.853Z,15.75
2022-08-18T18:28:47.693Z,18.00
2022-08-18T18:32:01.721Z,13.80
2022-08-18T18:35:18.834Z,15.50
2022-08-18T18:38:28.100Z,19.00
2022-08-18T18:41:31.894Z,17.60
2022-08-18T18:44:35.624Z,17.00
2022-08-18T18:47:50.707Z,18.20
2022-08-18T18:51:09.533Z,21.80
2022-08-18T18:54:33.053Z,19.00
2022-08-18T18:57:45.866Z,20.00
2022-08-18T19:00:55.973Z,20.00
2022-08-18T19:04:07.614Z,20.40
2022-08-18T19:07:21.310Z,23.40
2022-08-18T19:10:32.980Z,20.00
2022-08-18T19:13:40.868Z,23.00
2022-08-18T19:16:50.802Z,20.00
2022-08-18T19:19:58.984Z,23.00
2022-08-18T19:23:07.709Z,20.00
2022-08-18T19:26:15.663Z,19.80
2022-08-18T19:29:24.013Z,19.00
2022-08-18T19:32:35.780Z,20.00
2022-08-18T19:35:58.626Z,20.67
2022-08-18T19:39:11.776Z,20.00
2022-08-18T19:42:25.446Z,20.00
2022-08-18T19:45:34.517Z,19.60
2022-08-18T19:48:43.705Z,20.20
2022-08-18T19:51:50.416Z,19.40
2022-08-18T19:55:04.971Z,18.80
2022-08-18T19:59:15.273Z,20.20
2022-08-18T20:02:39.827Z,20.00
2022-08-18T20:05:54.712Z,19.00
2022-08-18T20:09:26.796Z,20.00
2022-08-18T20:12:46.524Z,20.00
2022-08-18T20:16:11.370Z,20.25
2022-08-18T20:23:37.745Z,20.00
2022-08-18T20:26:46.192Z,20.50
2022-08-18T20:30:01.402Z,22.00
2022-08-18T20:33:21.273Z,22.25
2022-08-18T20:36:31.227Z,20.00
2022-08-18T20:39:44.099Z,20.00
2022-08-18T20:42:56.052Z,21.00
2022-08-18T20:46:23.675Z,19.00
2022-08-18T20:49:40.732Z,20.20
2022-08-18T20:52:58.087Z,19.00
2022-08-18T20:56:31.289Z,21.00
2022-08-18T20:59:41.108Z,20.80
2022-08-18T21:02:50.996Z,21.00
2022-08-18T21:06:02.363Z,22.00
2022-08-18T21:09:06.417Z,18.20
2022-08-18T21:12:14.635Z,18.40
2022-08-18T21:15:18.067Z,20.00
2022-08-18T21:18:23.748Z,20.60
2022-08-18T21:21:30.895Z,25.00
2022-08-18T21:24:38.907Z,22.00
2022-08-18T21:27:47.351Z,22.00
2022-08-18T21:31:28.971Z,20.00
2022-08-18T21:34:32.594Z,20.60
2022-08-18T21:37:35.898Z,22.00
2022-08-18T21:40:43.649Z,22.00
2022-08-18T21:43:50.856Z,22.60
2022-08-18T21:47:05.727Z,22.00
2022-08-18T21:50:13.054Z,22.20
2022-08-18T21:53:21.691Z,24.20
2022-08-18T21:56:28.984Z,23.00
2022-08-18T21:59:33.979Z,22.80
2022-08-18T22:02:37.274Z,26.60
2022-08-18T22:05:57.953Z,25.00
2022-08-18T22:09:28.106Z,22.20
2022-08-18T22:12:52.171Z,26.00
2022-08-18T22:15:56.939Z,24.00
2022-08-18T22:19:12.982Z,23.00
2022-08-18T22:22:33.530Z,23.00
2022-08-18T22:25:36.900Z,24.00
2022-08-18T22:28:49.998Z,23.40
2022-08-18T22:31:55.846Z,23.00
2022-08-18T22:34:59.347Z,26.50
2022-08-18T22:38:02.707Z,23.50
2022-08-18T22:41:06.049Z,22.00
2022-08-18T22:44:10.512Z,23.00
2022-08-18T22:47:15.241Z,23.20
2022-08-18T22:50:19.453Z,26.40
2022-08-18T22:53:22.742Z,25.00
2022-08-18T22:56:34.852Z,25.00
2022-08-18T22:59:42.611Z,23.80
2022-08-18T23:02:48.358Z,25.00
2022-08-18T23:05:54.718Z,24.20
2022-08-18T23:09:00.705Z,23.20
2022-08-18T23:12:07.097Z,22.20
2022-08-18T23:15:12.139Z,28.50
2022-08-18T23:18:22.000Z,26.80
2022-08-18T23:21:34.962Z,24.50
2022-08-18T23:24:39.558Z,28.80
2022-08-18T23:27:43.362Z,22.00
2022-08-18T23:30:47.696Z,12.50
2022-08-18T23:33:55.091Z,27.00
2022-08-18T23:37:01.609Z,25.00
2022-08-18T23:40:06.073Z,26.40
2022-08-18T23:43:09.547Z,27.40
2022-08-18T23:46:18.459Z,24.00
2022-08-18T23:49:23.416Z,26.50
2022-08-18T23:52:27.046Z,25.00
2022-08-18T23:55:30.921Z,24.50
2022-08-18T23:58:34.160Z,32.00
